Time;durP1;ratioP1;P1;durP2;ratioP2;P2;SDS_P1;SDS_P2;PMS_P1;PMS_P2;Temp;Humidity;BMP_temperature;BMP_pressure;BME280_temperature;BME280_humidity;BME280_pressure;Samples;Min_cycle;Max_cycle;Signal;HPM_P1;HPM_P2
2023/12/29 00:01:20;;;;;;;3.50;1.90;;;11.10;99.90;;;;;;6277378;22;20411;-83
2023/12/29 00:03:46;;;;;;;6.17;1.60;;;11.10;99.90;;;;;;6275793;22;20145;-83
2023/12/29 00:06:11;;;;;;;2.80;1.00;;;11.10;99.90;;;;;;6275471;22;20163;-84
2023/12/29 00:08:37;;;;;;;3.07;1.63;;;11.10;99.90;;;;;;6275925;22;20157;-84
2023/12/29 00:11:02;;;;;;;11.87;2.20;;;11.10;99.90;;;;;;6250316;22;20722;-83
2023/12/29 00:13:28;;;;;;;10.57;1.90;;;11.10;99.90;;;;;;6275661;22;20731;-81
2023/12/29 00:15:55;;;;;;;9.60;2.20;;;11.10;99.90;;;;;;6277097;22;20181;-81
2023/12/29 00:18:21;;;;;;;3.70;1.70;;;11.10;99.90;;;;;;6250602;22;20149;-82
2023/12/29 00:20:48;;;;;;;4.40;1.67;;;11.10;99.90;;;;;;6278318;22;20879;-83
2023/12/29 00:23:14;;;;;;;2.50;1.20;;;11.10;99.90;;;;;;6251592;22;20383;-80
2023/12/29 00:25:41;;;;;;;4.70;1.60;;;11.10;99.90;;;;;;6251169;22;20438;-83
2023/12/29 00:28:06;;;;;;;9.30;1.63;;;11.20;99.90;;;;;;6277397;22;20933;-83
2023/12/29 00:30:32;;;;;;;8.67;1.80;;;11.20;99.90;;;;;;6251152;22;20686;-83
2023/12/29 00:32:58;;;;;;;7.03;2.17;;;11.20;99.90;;;;;;6249585;22;20879;-83
2023/12/29 00:35:23;;;;;;;4.43;1.70;;;11.20;99.90;;;;;;6278138;22;20163;-83
2023/12/29 00:37:50;;;;;;;8.90;2.17;;;11.20;99.90;;;;;;6277909;22;20544;-83
2023/12/29 00:40:16;;;;;;;8.80;2.00;;;11.20;99.90;;;;;;6278166;22;20153;-83
2023/12/29 00:42:42;;;;;;;13.70;2.07;;;11.10;99.90;;;;;;6251817;22;20779;-82
2023/12/29 00:45:08;;;;;;;15.43;2.50;;;11.10;99.90;;;;;;6279268;22;20485;-83
2023/12/29 00:47:33;;;;;;;6.03;2.13;;;11.20;99.90;;;;;;6279786;22;20153;-83
2023/12/29 00:50:00;;;;;;;2.90;1.50;;;11.20;99.90;;;;;;6252189;22;20442;-83
2023/12/29 00:52:25;;;;;;;5.77;2.10;;;11.20;99.90;;;;;;6252748;22;20156;-83
2023/12/29 00:54:51;;;;;;;10.93;1.90;;;11.20;99.90;;;;;;6279540;22;20765;-84
2023/12/29 00:57:16;;;;;;;6.13;1.60;;;11.20;99.90;;;;;;6280370;22;20173;-84
2023/12/29 00:59:43;;;;;;;8.33;1.97;;;11.20;99.90;;;;;;6280003;22;20163;-83
2023/12/29 01:02:09;;;;;;;6.60;2.30;;;11.20;99.90;;;;;;6277589;22;20179;-83
2023/12/29 01:04:38;;;;;;;5.13;1.53;;;11.20;99.90;;;;;;6279201;22;20376;-83
2023/12/29 01:07:04;;;;;;;4.17;1.73;;;11.20;99.90;;;;;;6278993;22;20376;-84
2023/12/29 01:09:29;;;;;;;11.30;2.30;;;11.20;99.90;;;;;;6252213;22;20383;-84
2023/12/29 01:11:55;;;;;;;7.37;1.80;;;11.20;99.90;;;;;;6279447;22;20251;-84
2023/12/29 01:14:20;;;;;;;3.20;1.90;;;11.20;99.90;;;;;;6278896;22;20184;-83
2023/12/29 01:16:46;;;;;;;9.30;2.07;;;11.20;99.90;;;;;;6279322;22;20180;-83
2023/12/29 01:19:11;;;;;;;10.03;1.87;;;11.10;99.90;;;;;;6276810;22;20180;-83
2023/12/29 01:21:40;;;;;;;10.43;2.40;;;11.10;99.90;;;;;;6278005;22;20199;-83
2023/12/29 01:24:07;;;;;;;5.57;2.10;;;11.10;99.90;;;;;;6277939;22;20175;-83
2023/12/29 01:26:37;;;;;;;19.17;2.50;;;11.10;99.90;;;;;;6276815;22;20470;-83
2023/12/29 01:29:02;;;;;;;4.23;1.80;;;11.10;99.90;;;;;;6250339;22;20469;-83
2023/12/29 01:31:31;;;;;;;7.67;2.20;;;11.10;99.90;;;;;;6249626;22;20906;-83
2023/12/29 01:33:56;;;;;;;6.47;2.23;;;11.10;99.90;;;;;;6249189;22;20179;-83
2023/12/29 01:36:22;;;;;;;5.70;1.93;;;11.10;99.90;;;;;;6276776;22;20895;-83
2023/12/29 01:38:48;;;;;;;7.47;2.73;;;11.10;99.90;;;;;;6275729;22;20207;-83
2023/12/29 01:41:14;;;;;;;6.70;1.83;;;11.10;1.00;;;;;;6276891;22;20513;-83
2023/12/29 01:43:57;;;;;;;5.07;2.23;;;11.10;1.00;;;;;;6276438;22;20147;-84
2023/12/29 01:46:35;;;;;;;7.20;2.50;;;11.00;1.00;;;;;;6276579;22;20886;-84
2023/12/29 01:49:01;;;;;;;3.77;1.90;;;11.00;1.00;;;;;;6277242;22;20372;-83
2023/12/29 01:51:27;;;;;;;5.83;2.03;;;11.00;1.00;;;;;;6277369;22;20395;-83
2023/12/29 01:53:54;;;;;;;6.70;2.33;;;10.90;1.00;;;;;;6276516;22;20470;-81
2023/12/29 01:56:21;;;;;;;7.93;2.63;;;10.90;25.10;;;;;;6275692;22;20515;-82
2023/12/29 01:58:49;;;;;;;4.47;2.30;;;10.90;97.70;;;;;;6275243;22;20372;-83
2023/12/29 02:01:18;;;;;;;5.47;1.53;;;11.00;99.90;;;;;;6274324;22;20419;-83
2023/12/29 02:03:47;;;;;;;6.73;2.33;;;11.00;99.90;;;;;;6248411;22;20530;-83
2023/12/29 02:06:13;;;;;;;4.77;2.17;;;11.00;99.90;;;;;;6276048;22;20464;-84
2023/12/29 02:08:40;;;;;;;7.93;2.37;;;11.10;99.90;;;;;;6276297;22;20462;-83
2023/12/29 02:11:06;;;;;;;6.47;2.03;;;11.00;1.00;;;;;;6249608;22;20915;-84
2023/12/29 02:13:32;;;;;;;6.33;1.87;;;11.00;99.90;;;;;;6275944;22;20382;-83
2023/12/29 02:16:11;;;;;;;8.17;2.83;;;10.90;99.90;;;;;;6276808;22;20425;-83
2023/12/29 02:18:38;;;;;;;7.00;2.57;;;10.80;31.40;;;;;;6249405;22;20140;-83
2023/12/29 02:21:04;;;;;;;11.20;3.33;;;10.70;99.90;;;;;;6278162;22;20483;-83
2023/12/29 02:23:29;;;;;;;6.10;2.63;;;10.60;99.90;;;;;;6277700;22;20395;-83
2023/12/29 02:26:02;;;;;;;10.67;3.10;;;10.60;99.90;;;;;;6251666;22;20214;-83
2023/12/29 02:28:28;;;;;;;5.53;1.73;;;10.50;99.90;;;;;;6276837;22;20167;-83
2023/12/29 02:31:05;;;;;;;5.50;2.83;;;10.50;1.00;;;;;;6278505;22;20395;-83
2023/12/29 02:33:35;;;;;;;6.13;2.30;;;10.40;1.00;;;;;;6248655;22;20149;-83
2023/12/29 02:36:03;;;;;;;10.90;2.33;;;10.40;99.90;;;;;;6250662;22;20522;-83
2023/12/29 02:38:29;;;;;;;7.07;2.47;;;10.40;99.90;;;;;;6249862;22;20375;-83
2023/12/29 02:40:58;;;;;;;7.60;1.87;;;10.50;99.90;;;;;;6278416;22;20398;-83
2023/12/29 02:43:24;;;;;;;10.27;2.60;;;10.50;99.90;;;;;;6277698;22;20430;-83
2023/12/29 02:45:49;;;;;;;9.20;2.00;;;10.50;99.90;;;;;;6277440;22;20375;-83
2023/12/29 02:48:15;;;;;;;4.73;1.93;;;10.50;99.90;;;;;;6249745;22;20157;-84
2023/12/29 02:50:40;;;;;;;7.50;2.67;;;10.50;99.90;;;;;;6275745;22;20173;-83
2023/12/29 02:53:06;;;;;;;8.63;2.60;;;10.50;99.90;;;;;;6250129;22;20159;-83
2023/12/29 02:55:32;;;;;;;6.90;2.20;;;10.50;99.90;;;;;;6276001;22;20153;-83
2023/12/29 02:57:57;;;;;;;4.40;1.50;;;10.50;99.90;;;;;;6250427;22;20631;-83
2023/12/29 03:00:23;;;;;;;5.50;1.70;;;10.60;99.90;;;;;;6275645;22;20191;-83
2023/12/29 03:02:48;;;;;;;11.80;2.00;;;10.60;30.40;;;;;;6275516;22;20155;-82
2023/12/29 03:05:14;;;;;;;11.47;2.03;;;10.60;1.00;;;;;;6275075;22;20156;-83
2023/12/29 03:07:41;;;;;;;5.20;2.00;;;10.70;99.90;;;;;;6247802;22;20196;-83
2023/12/29 03:10:07;;;;;;;10.93;2.10;;;10.70;99.90;;;;;;6277426;22;20382;-83
2023/12/29 03:12:33;;;;;;;9.93;1.70;;;10.70;1.00;;;;;;6249979;22;20156;-83
2023/12/29 03:14:59;;;;;;;8.00;1.80;;;10.80;1.00;;;;;;6276377;22;20847;-83
2023/12/29 03:17:24;;;;;;;9.80;1.60;;;10.80;99.90;;;;;;6248425;22;20180;-83
2023/12/29 03:19:50;;;;;;;3.73;2.00;;;10.80;99.90;;;;;;6277384;22;20198;-82
2023/12/29 03:22:15;;;;;;;3.87;1.83;;;10.90;95.90;;;;;;6278039;22;20248;-83
2023/12/29 03:24:42;;;;;;;11.30;2.47;;;10.90;1.00;;;;;;6276790;22;20152;-83
2023/12/29 03:27:08;;;;;;;6.63;1.80;;;10.90;1.00;;;;;;6277339;22;20545;-83
2023/12/29 03:29:33;;;;;;;6.53;1.90;;;11.00;99.90;;;;;;6277559;22;20447;-83
2023/12/29 03:31:58;;;;;;;5.63;1.73;;;11.00;99.90;;;;;;6277018;22;20173;-83
2023/12/29 03:34:24;;;;;;;9.60;2.30;;;11.00;99.90;;;;;;6248444;22;20582;-83
2023/12/29 03:36:49;;;;;;;4.83;1.97;;;11.00;99.90;;;;;;6277338;22;20218;-83
2023/12/29 03:39:15;;;;;;;3.40;1.47;;;11.00;1.00;;;;;;6277568;22;20200;-83
2023/12/29 03:41:40;;;;;;;10.87;2.00;;;11.00;1.00;;;;;;6250106;22;20176;-83
2023/12/29 03:44:06;;;;;;;5.47;1.67;;;11.00;1.00;;;;;;6277619;22;20148;-83
2023/12/29 03:46:32;;;;;;;7.53;2.07;;;11.10;99.90;;;;;;6278689;22;20212;-83
2023/12/29 03:48:58;;;;;;;6.87;2.10;;;11.10;99.90;;;;;;6279327;22;20160;-83
2023/12/29 03:51:24;;;;;;;10.10;3.10;;;11.10;53.70;;;;;;6251134;22;20407;-83
2023/12/29 03:53:49;;;;;;;9.00;1.90;;;11.10;20.50;;;;;;6279059;22;20235;-83
2023/12/29 03:56:17;;;;;;;7.60;1.90;;;11.10;1.00;;;;;;6251758;22;20184;-82
2023/12/29 03:58:43;;;;;;;10.77;1.87;;;11.10;1.00;;;;;;6278267;22;20222;-83
2023/12/29 04:01:11;;;;;;;6.57;2.03;;;11.10;1.00;;;;;;6276826;22;21004;-84
2023/12/29 04:03:36;;;;;;;3.10;1.43;;;11.20;1.00;;;;;;6277675;22;20744;-83
2023/12/29 04:06:02;;;;;;;13.20;2.37;;;11.20;1.00;;;;;;6250152;22;20379;-83
2023/12/29 04:08:28;;;;;;;8.67;2.43;;;11.20;1.00;;;;;;6278293;22;20240;-83
2023/12/29 04:10:53;;;;;;;8.07;1.77;;;11.20;99.90;;;;;;6280159;22;20173;-83
2023/12/29 04:13:19;;;;;;;3.80;1.83;;;11.20;99.90;;;;;;6278636;22;20179;-84
2023/12/29 04:15:44;;;;;;;4.10;1.77;;;11.20;1.00;;;;;;6278787;22;20177;-83
2023/12/29 04:18:10;;;;;;;8.03;2.00;;;11.20;1.00;;;;;;6276401;22;20187;-82
2023/12/29 04:20:35;;;;;;;4.50;1.70;;;11.20;1.00;;;;;;6278617;22;20552;-83
2023/12/29 04:23:01;;;;;;;3.13;1.30;;;11.20;1.00;;;;;;6278903;22;20152;-83
2023/12/29 04:25:26;;;;;;;8.90;1.87;;;11.20;1.00;;;;;;6251151;22;20268;-83
2023/12/29 04:27:52;;;;;;;6.93;2.03;;;11.20;99.90;;;;;;6279092;22;20159;-83
2023/12/29 04:30:17;;;;;;;2.60;1.63;;;11.10;99.90;;;;;;6252233;22;20624;-84
2023/12/29 04:32:43;;;;;;;9.27;2.70;;;11.10;99.90;;;;;;6250142;22;20149;-83
2023/12/29 04:35:12;;;;;;;7.87;2.10;;;11.00;99.90;;;;;;6248081;22;20159;-83
2023/12/29 04:37:38;;;;;;;11.50;2.53;;;11.00;1.00;;;;;;6276927;22;20512;-85
2023/12/29 04:40:04;;;;;;;6.50;2.17;;;11.00;1.00;;;;;;6249551;22;20989;-83
2023/12/29 04:42:30;;;;;;;9.73;1.70;;;11.00;1.00;;;;;;6277229;22;20156;-85
2023/12/29 04:44:55;;;;;;;4.70;1.63;;;11.00;1.00;;;;;;6275840;22;20375;-82
2023/12/29 04:47:21;;;;;;;7.87;1.70;;;10.90;39.20;;;;;;6276716;22;20248;-83
2023/12/29 04:49:46;;;;;;;6.27;2.10;;;10.90;99.90;;;;;;6249751;22;20157;-84
2023/12/29 04:52:12;;;;;;;12.83;2.40;;;10.90;99.90;;;;;;6248280;22;20233;-86
2023/12/29 04:54:38;;;;;;;9.87;2.23;;;10.90;1.00;;;;;;6276380;22;20380;-83
2023/12/29 04:57:04;;;;;;;11.23;2.10;;;10.90;1.00;;;;;;6248748;22;20195;-83
2023/12/29 04:59:29;;;;;;;3.53;1.80;;;10.90;1.00;;;;;;6249058;22;20193;-84
2023/12/29 05:01:55;;;;;;;12.10;2.20;;;10.90;99.90;;;;;;6275945;22;20256;-83
2023/12/29 05:04:20;;;;;;;7.97;2.10;;;10.90;99.90;;;;;;6275113;22;20200;-83
2023/12/29 05:06:46;;;;;;;12.93;2.27;;;10.90;99.90;;;;;;6249329;22;20184;-84
2023/12/29 05:09:11;;;;;;;7.70;1.97;;;10.90;99.90;;;;;;6276306;22;20465;-82
2023/12/29 05:11:37;;;;;;;7.63;1.90;;;10.90;99.90;;;;;;6247759;22;20192;-83
2023/12/29 05:14:02;;;;;;;5.23;1.83;;;10.90;49.40;;;;;;6275199;22;20238;-83
2023/12/29 05:16:28;;;;;;;6.00;1.63;;;10.90;1.00;;;;;;6275627;22;20183;-85
2023/12/29 05:18:53;;;;;;;12.37;2.30;;;10.80;1.00;;;;;;6276613;22;20148;-85
2023/12/29 05:21:20;;;;;;;10.30;2.27;;;10.80;1.00;;;;;;6249891;22;20234;-83
2023/12/29 05:23:47;;;;;;;4.10;1.53;;;10.80;1.00;;;;;;6277688;22;20638;-83
2023/12/29 05:26:13;;;;;;;12.60;1.70;;;10.80;1.00;;;;;;6277641;22;20712;-84
2023/12/29 05:28:38;;;;;;;6.00;2.30;;;10.80;99.90;;;;;;6276097;22;20454;-84
2023/12/29 05:31:04;;;;;;;7.33;1.57;;;10.80;1.00;;;;;;6276435;22;20238;-83
2023/12/29 05:33:30;;;;;;;7.03;1.90;;;10.80;1.00;;;;;;6277876;22;20211;-83
2023/12/29 05:35:56;;;;;;;4.67;1.77;;;10.80;1.00;;;;;;6277590;22;20184;-83
2023/12/29 05:38:22;;;;;;;7.20;1.83;;;10.80;1.00;;;;;;6250991;22;20376;-83
2023/12/29 05:40:48;;;;;;;6.53;2.07;;;10.80;1.00;;;;;;6278080;22;20390;-83
2023/12/29 05:43:15;;;;;;;8.47;2.10;;;10.80;1.00;;;;;;6277243;22;20170;-85
2023/12/29 05:45:40;;;;;;;7.10;1.67;;;10.80;1.00;;;;;;6249508;22;20153;-84
2023/12/29 05:48:06;;;;;;;9.70;2.17;;;10.80;1.00;;;;;;6276707;22;20684;-83
2023/12/29 05:50:32;;;;;;;6.00;2.40;;;10.80;1.00;;;;;;6277648;22;20256;-83
2023/12/29 05:52:58;;;;;;;4.77;1.40;;;10.80;1.00;;;;;;6277562;22;20473;-83
2023/12/29 05:55:23;;;;;;;7.17;2.03;;;10.80;1.00;;;;;;6250284;22;20633;-83
2023/12/29 05:57:49;;;;;;;4.17;1.60;;;10.70;1.00;;;;;;6278481;22;20624;-83
2023/12/29 06:00:15;;;;;;;5.90;1.27;;;10.70;1.00;;;;;;6251359;22;20172;-83
2023/12/29 06:02:41;;;;;;;9.47;2.17;;;10.70;1.00;;;;;;6248920;22;20632;-85
2023/12/29 06:05:07;;;;;;;5.77;1.43;;;10.70;1.00;;;;;;6275672;22;20430;-83
2023/12/29 06:07:34;;;;;;;6.90;1.60;;;10.70;1.00;;;;;;6275276;22;20517;-83
2023/12/29 06:09:59;;;;;;;12.50;2.13;;;10.70;1.00;;;;;;6276283;22;20379;-83
2023/12/29 06:12:25;;;;;;;5.10;1.73;;;10.70;1.00;;;;;;6275620;22;20725;-83
2023/12/29 06:14:50;;;;;;;6.97;1.67;;;10.70;1.00;;;;;;6248734;22;20606;-83
2023/12/29 06:17:16;;;;;;;4.47;1.27;;;10.70;1.00;;;;;;6247673;22;20180;-83
2023/12/29 06:19:41;;;;;;;6.60;1.70;;;10.70;1.00;;;;;;6275021;22;20153;-83
2023/12/29 06:22:11;;;;;;;4.17;1.47;;;10.70;99.90;;;;;;6275810;22;20168;-83
2023/12/29 06:24:37;;;;;;;3.53;1.67;;;10.80;99.90;;;;;;6275011;22;20149;-83
2023/12/29 06:27:03;;;;;;;10.50;2.10;;;10.80;99.90;;;;;;6275887;22;20380;-80
2023/12/29 06:29:28;;;;;;;3.43;1.50;;;10.90;99.90;;;;;;6275447;22;20402;-83
2023/12/29 06:31:54;;;;;;;3.73;1.33;;;10.90;99.90;;;;;;6276164;22;20403;-83
2023/12/29 06:34:20;;;;;;;10.03;2.37;;;10.90;99.90;;;;;;6248510;22;20160;-83
2023/12/29 06:36:45;;;;;;;8.60;2.00;;;10.90;99.90;;;;;;6274728;22;20522;-83
2023/12/29 06:39:11;;;;;;;9.00;1.87;;;10.90;99.90;;;;;;6273262;22;20379;-85
2023/12/29 06:41:37;;;;;;;9.40;2.00;;;10.90;99.90;;;;;;6274849;22;20181;-83
2023/12/29 06:44:02;;;;;;;7.13;1.90;;;11.00;99.90;;;;;;6277516;22;20545;-84
2023/12/29 06:46:28;;;;;;;5.47;1.60;;;11.00;99.90;;;;;;6276943;22;20605;-83
2023/12/29 06:48:53;;;;;;;4.60;1.93;;;11.00;99.90;;;;;;6249731;22;20157;-83
2023/12/29 06:51:19;;;;;;;6.20;1.57;;;11.00;1.00;;;;;;6277896;22;20187;-84
2023/12/29 06:53:49;;;;;;;13.90;1.77;;;11.00;1.00;;;;;;6252486;22;20156;-84
2023/12/29 06:56:17;;;;;;;5.47;2.13;;;11.00;1.00;;;;;;6278759;22;20180;-83
2023/12/29 06:58:44;;;;;;;6.27;1.37;;;11.00;1.00;;;;;;6253382;22;20462;-85
2023/12/29 07:01:10;;;;;;;6.20;1.50;;;11.00;1.00;;;;;;6250677;22;20427;-84
2023/12/29 07:03:35;;;;;;;11.40;2.20;;;11.00;1.00;;;;;;6276520;22;20433;-84
2023/12/29 07:06:01;;;;;;;8.67;1.80;;;11.00;1.00;;;;;;6279348;22;20153;-82
2023/12/29 07:08:27;;;;;;;6.80;1.80;;;11.00;1.00;;;;;;6277714;22;20156;-83
2023/12/29 07:10:53;;;;;;;7.60;1.33;;;11.10;3.50;;;;;;6279174;22;20482;-83
2023/12/29 07:13:19;;;;;;;9.30;1.60;;;11.00;80.30;;;;;;6277113;22;20387;-83
2023/12/29 07:15:50;;;;;;;7.07;1.47;;;11.00;99.90;;;;;;6278530;22;20632;-84
2023/12/29 07:18:16;;;;;;;4.97;1.90;;;11.10;99.90;;;;;;6278898;22;20136;-83
2023/12/29 07:20:42;;;;;;;6.70;2.10;;;11.10;99.90;;;;;;6277174;22;20399;-84
2023/12/29 07:23:08;;;;;;;4.10;1.47;;;11.10;23.30;;;;;;6276701;22;20155;-84
2023/12/29 07:25:33;;;;;;;2.93;1.27;;;11.10;99.90;;;;;;6249671;22;20404;-83
2023/12/29 07:27:59;;;;;;;5.97;1.80;;;11.00;32.80;;;;;;6280162;22;20153;-84
2023/12/29 07:30:25;;;;;;;3.10;0.90;;;11.00;1.00;;;;;;6278542;22;20188;-83
2023/12/29 07:32:51;;;;;;;10.60;2.17;;;11.00;1.00;;;;;;6279989;22;20154;-83
2023/12/29 07:35:19;;;;;;;6.77;1.97;;;10.90;99.90;;;;;;6252161;22;20383;-83
2023/12/29 07:37:45;;;;;;;7.27;1.50;;;10.90;99.90;;;;;;6276033;22;20183;-83
2023/12/29 07:40:11;;;;;;;9.23;1.67;;;10.90;99.90;;;;;;6275825;22;20712;-83
2023/12/29 07:42:39;;;;;;;5.27;1.67;;;10.90;1.00;;;;;;6275596;22;20152;-83
2023/12/29 07:45:05;;;;;;;5.80;2.30;;;10.80;1.00;;;;;;6275980;22;20379;-83
2023/12/29 07:47:31;;;;;;;7.10;2.27;;;10.70;1.00;;;;;;6248620;22;20392;-83
2023/12/29 07:49:57;;;;;;;10.07;2.07;;;10.60;1.00;;;;;;6276421;22;20721;-83
2023/12/29 07:52:22;;;;;;;13.73;2.83;;;10.60;1.00;;;;;;6276561;22;20399;-83
2023/12/29 07:54:48;;;;;;;10.00;2.07;;;10.50;1.00;;;;;;6275103;22;20176;-84
2023/12/29 07:57:14;;;;;;;4.67;1.83;;;10.50;1.00;;;;;;6276827;22;20173;-85
2023/12/29 07:59:40;;;;;;;4.30;1.73;;;10.40;1.00;;;;;;6275302;22;20371;-83
2023/12/29 08:02:06;;;;;;;8.63;1.97;;;10.40;1.00;;;;;;6276159;22;20200;-83
2023/12/29 08:04:31;;;;;;;9.10;2.60;;;10.30;1.00;;;;;;6274596;22;20478;-83
2023/12/29 08:06:57;;;;;;;11.10;2.87;;;10.20;1.00;;;;;;6276471;22;20184;-83
2023/12/29 08:09:23;;;;;;;12.33;2.57;;;10.20;1.00;;;;;;6275933;22;20149;-83
2023/12/29 08:11:49;;;;;;;14.87;2.70;;;10.20;1.00;;;;;;6276695;22;20176;-83
2023/12/29 08:14:14;;;;;;;10.23;2.23;;;10.10;1.20;;;;;;6275763;22;20375;-85
2023/12/29 08:16:41;;;;;;;9.40;2.50;;;10.10;8.50;;;;;;6276441;22;20418;-83
2023/12/29 08:19:07;;;;;;;5.53;1.83;;;10.10;13.80;;;;;;6276037;22;20149;-84
2023/12/29 08:21:33;;;;;;;11.90;2.70;;;10.00;19.20;;;;;;6249125;22;20419;-84
2023/12/29 08:23:59;;;;;;;8.80;2.00;;;10.00;26.30;;;;;;6283430;22;20372;-85
2023/12/29 08:26:25;;;;;;;15.43;2.20;;;10.00;32.20;;;;;;6283573;22;20409;-85
2023/12/29 08:28:50;;;;;;;12.40;2.90;;;10.00;35.60;;;;;;6283518;22;20207;-83
2023/12/29 08:31:16;;;;;;;9.17;2.80;;;10.00;41.60;;;;;;6280615;22;20395;-83
2023/12/29 08:33:42;;;;;;;9.57;2.37;;;10.00;44.60;;;;;;6282370;22;20553;-84
2023/12/29 08:36:07;;;;;;;7.10;2.10;;;10.00;45.70;;;;;;6256521;22;20435;-83
2023/12/29 08:38:33;;;;;;;6.67;2.17;;;10.10;49.70;;;;;;6282046;22;20197;-84
2023/12/29 08:40:59;;;;;;;8.93;2.53;;;10.10;47.90;;;;;;6252431;22;20198;-85
2023/12/29 08:43:25;;;;;;;15.70;2.83;;;10.10;52.40;;;;;;6276805;22;20152;-83
2023/12/29 08:45:50;;;;;;;4.87;2.47;;;10.10;52.40;;;;;;6277113;22;20371;-85
2023/12/29 08:48:16;;;;;;;9.60;2.73;;;10.10;51.10;;;;;;6248149;22;20156;-83
2023/12/29 08:50:42;;;;;;;12.40;2.90;;;10.10;52.20;;;;;;6277095;22;20651;-83
2023/12/29 08:53:11;;;;;;;8.43;2.60;;;10.10;51.90;;;;;;6249725;22;20450;-83
2023/12/29 08:55:36;;;;;;;5.27;2.97;;;10.10;56.60;;;;;;6274971;22;20374;-83
2023/12/29 08:58:02;;;;;;;10.30;2.33;;;10.10;58.50;;;;;;6275315;22;20399;-83
2023/12/29 09:00:30;;;;;;;10.03;2.70;;;10.10;58.70;;;;;;6275917;22;20184;-84
2023/12/29 09:02:56;;;;;;;15.27;3.43;;;10.10;55.60;;;;;;6276174;22;20153;-83
2023/12/29 09:05:21;;;;;;;22.97;9.70;;;10.20;54.30;;;;;;6247045;22;20391;-84
2023/12/29 09:07:47;;;;;;;17.63;7.50;;;10.20;49.00;;;;;;6276104;22;21143;-83
2023/12/29 09:10:13;;;;;;;13.37;3.13;;;10.30;46.10;;;;;;6274138;22;20229;-83
2023/12/29 09:12:39;;;;;;;7.07;3.10;;;10.30;40.40;;;;;;6275440;22;20153;-82
2023/12/29 09:15:06;;;;;;;9.47;3.13;;;10.40;35.10;;;;;;6274268;22;20401;-84
2023/12/29 09:17:31;;;;;;;9.00;3.60;;;10.40;30.90;;;;;;6274879;22;20176;-83
2023/12/29 09:19:57;;;;;;;8.40;2.53;;;10.40;28.30;;;;;;6273799;22;20521;-83
2023/12/29 09:22:22;;;;;;;5.57;1.90;;;10.50;28.40;;;;;;6274254;22;20633;-85
2023/12/29 09:24:48;;;;;;;4.80;1.67;;;10.50;25.70;;;;;;6275509;22;20263;-83
2023/12/29 09:27:13;;;;;;;10.33;2.17;;;10.50;21.60;;;;;;6275708;22;20153;-82
2023/12/29 09:29:40;;;;;;;12.00;2.60;;;10.60;24.10;;;;;;6276143;22;20164;-83
2023/12/29 09:32:06;;;;;;;4.73;2.00;;;10.60;21.00;;;;;;6276438;22;20247;-83
2023/12/29 09:34:31;;;;;;;6.13;2.17;;;10.70;17.00;;;;;;6276325;22;20375;-82
2023/12/29 09:36:57;;;;;;;6.53;1.30;;;10.70;8.70;;;;;;6275239;22;20454;-83
2023/12/29 09:39:22;;;;;;;7.37;2.53;;;10.90;7.40;;;;;;6274130;22;20149;-82
2023/12/29 09:41:52;;;;;;;3.90;2.20;;;10.90;1.00;;;;;;6275308;22;20176;-83
2023/12/29 09:44:20;;;;;;;3.50;2.20;;;11.10;1.00;;;;;;6275473;22;20171;-84
2023/12/29 09:46:50;;;;;;;7.80;1.73;;;11.40;1.00;;;;;;6276234;22;20379;-83
2023/12/29 09:49:18;;;;;;;5.47;1.77;;;11.70;1.00;;;;;;6275571;22;20450;-84
2023/12/29 09:51:44;;;;;;;12.47;2.10;;;11.80;1.00;;;;;;6275806;22;20395;-83
2023/12/29 09:54:10;;;;;;;8.27;1.93;;;11.60;1.00;;;;;;6275681;22;20379;-83
2023/12/29 09:56:37;;;;;;;7.17;1.97;;;11.50;1.00;;;;;;6280579;22;20506;-83
2023/12/29 09:59:03;;;;;;;7.50;2.27;;;11.40;1.00;;;;;;6277529;22;20693;-85
2023/12/29 10:01:30;;;;;;;9.53;1.70;;;11.50;1.00;;;;;;6280826;22;20407;-84
2023/12/29 10:03:56;;;;;;;9.03;1.87;;;11.60;1.00;;;;;;6279575;22;20403;-83
2023/12/29 10:06:24;;;;;;;7.37;1.90;;;11.90;1.00;;;;;;6248527;22;20391;-83
2023/12/29 10:08:51;;;;;;;12.83;1.90;;;12.20;1.00;;;;;;6277522;22;20407;-83
2023/12/29 10:11:21;;;;;;;6.80;1.77;;;12.50;1.00;;;;;;6251004;22;20504;-86
2023/12/29 10:13:50;;;;;;;7.43;1.83;;;12.40;99.90;;;;;;6249115;22;20737;-85
2023/12/29 10:16:37;;;;;;;4.37;2.03;;;12.40;99.90;;;;;;6277601;22;20415;-87
2023/12/29 10:19:16;;;;;;;3.57;1.60;;;12.40;99.90;;;;;;6278966;22;20359;-85
2023/12/29 10:22:02;;;;;;;5.87;1.30;;;12.30;99.90;;;;;;6250545;22;20441;-86
2023/12/29 10:24:28;;;;;;;7.63;1.37;;;12.30;1.00;;;;;;6252789;22;20765;-86
2023/12/29 10:26:55;;;;;;;5.23;1.10;;;12.30;1.00;;;;;;6277938;22;20395;-88
2023/12/29 10:29:21;;;;;;;5.03;1.37;;;12.50;99.90;;;;;;6278975;22;20415;-86
2023/12/29 10:31:47;;;;;;;5.70;1.33;;;12.90;99.90;;;;;;6276920;22;20451;-86
2023/12/29 10:34:29;;;;;;;4.97;1.40;;;13.00;41.40;;;;;;6251959;22;20383;-86
2023/12/29 10:36:56;;;;;;;3.37;1.23;;;13.10;99.90;;;;;;6255758;22;20149;-84
2023/12/29 10:39:22;;;;;;;4.93;1.40;;;13.40;86.90;;;;;;6280503;22;20371;-85
2023/12/29 10:41:48;;;;;;;4.40;1.10;;;13.50;99.90;;;;;;6279735;22;20403;-85
2023/12/29 10:44:13;;;;;;;4.90;1.30;;;13.80;99.90;;;;;;6281851;22;20438;-84
2023/12/29 10:46:39;;;;;;;3.73;1.30;;;14.00;1.00;;;;;;6256022;22;20184;-85
2023/12/29 10:49:12;;;;;;;3.67;1.57;;;14.00;1.00;;;;;;6252916;22;20153;-88
2023/12/29 10:51:38;;;;;;;5.43;1.30;;;14.00;99.90;;;;;;6280580;22;20185;-84
2023/12/29 10:54:04;;;;;;;3.27;1.27;;;14.00;99.90;;;;;;6279179;22;20384;-84
2023/12/29 10:56:31;;;;;;;3.30;1.30;;;13.80;1.00;;;;;;6281332;22;20957;-84
2023/12/29 10:59:00;;;;;;;2.43;1.20;;;13.80;99.90;;;;;;6251534;22;20387;-85
2023/12/29 11:01:26;;;;;;;4.53;1.47;;;13.90;99.90;;;;;;6246981;22;20407;-85
2023/12/29 11:04:05;;;;;;;5.90;1.23;;;14.00;99.90;;;;;;6254254;22;20375;-84
2023/12/29 11:06:43;;;;;;;2.23;1.20;;;14.40;99.90;;;;;;6280769;22;20267;-88
2023/12/29 11:09:10;;;;;;;4.03;1.20;;;14.80;2.60;;;;;;6279554;22;20930;-85
2023/12/29 11:11:37;;;;;;;4.17;1.20;;;14.80;99.90;;;;;;6279269;22;20761;-85
2023/12/29 11:14:03;;;;;;;12.07;1.30;;;14.60;99.90;;;;;;6279128;22;20395;-84
2023/12/29 11:16:31;;;;;;;2.10;1.00;;;14.40;99.90;;;;;;6279266;22;20773;-84
2023/12/29 11:18:58;;;;;;;4.47;1.63;;;14.30;1.00;;;;;;6278138;22;20371;-85
2023/12/29 11:21:26;;;;;;;5.50;1.17;;;14.10;1.00;;;;;;6279987;22;20464;-84
2023/12/29 11:23:51;;;;;;;4.90;1.77;;;13.90;1.00;;;;;;6277749;22;20376;-84
2023/12/29 11:26:18;;;;;;;3.50;1.20;;;13.80;94.80;;;;;;6280637;22;20414;-85
2023/12/29 11:28:45;;;;;;;6.70;1.50;;;13.50;99.90;;;;;;6278685;22;20173;-83
2023/12/29 11:31:15;;;;;;;2.03;1.00;;;13.50;1.00;;;;;;6279155;22;20461;-85
2023/12/29 11:33:48;;;;;;;5.10;1.27;;;13.30;1.00;;;;;;6279899;22;20451;-86
2023/12/29 11:36:23;;;;;;;4.47;1.83;;;13.10;1.00;;;;;;6279247;22;20392;-85
2023/12/29 11:39:00;;;;;;;2.13;1.10;;;13.00;1.00;;;;;;6251781;22;20390;-85
2023/12/29 11:41:46;;;;;;;2.30;1.20;;;12.90;20.60;;;;;;6278056;22;20406;-85
2023/12/29 11:44:12;;;;;;;4.03;1.20;;;12.80;1.00;;;;;;6278674;22;20501;-84
2023/12/29 11:46:45;;;;;;;3.83;1.00;;;12.80;96.50;;;;;;6278483;22;20411;-86
2023/12/29 11:49:11;;;;;;;3.20;1.67;;;12.90;99.90;;;;;;6276125;22;20129;-84
2023/12/29 11:51:43;;;;;;;3.00;1.37;;;13.00;99.90;;;;;;6276113;22;20399;-86
2023/12/29 11:54:09;;;;;;;4.03;1.40;;;13.10;1.00;;;;;;6277291;22;20130;-85
2023/12/29 11:56:41;;;;;;;3.33;1.10;;;13.00;99.90;;;;;;6251418;22;20483;-84
2023/12/29 11:59:18;;;;;;;6.43;1.30;;;13.00;99.90;;;;;;6280019;22;20411;-85
2023/12/29 12:01:48;;;;;;;4.87;1.60;;;12.90;99.90;;;;;;6253194;22;20410;-85
2023/12/29 12:04:37;;;;;;;4.23;1.40;;;12.90;1.00;;;;;;6279063;22;20356;-84
2023/12/29 12:07:04;;;;;;;3.37;1.10;;;12.80;57.30;;;;;;6279306;22;20407;-87
2023/12/29 12:09:30;;;;;;;4.33;1.17;;;12.70;99.90;;;;;;6280228;22;20387;-84
2023/12/29 12:11:56;;;;;;;4.93;1.50;;;12.70;99.90;;;;;;6252799;22;20762;-84
2023/12/29 12:14:51;;;;;;;4.50;1.80;;;12.50;99.90;;;;;;6279042;22;20198;-85
2023/12/29 12:17:32;;;;;;;2.43;1.00;;;12.50;99.90;;;;;;6251137;22;20426;-84
2023/12/29 12:20:10;;;;;;;4.83;1.33;;;12.30;1.00;;;;;;6277759;22;20376;-83
2023/12/29 12:22:36;;;;;;;6.37;1.40;;;12.10;1.00;;;;;;6278528;22;20411;-86
2023/12/29 12:25:03;;;;;;;4.40;1.37;;;12.00;1.00;;;;;;6275662;22;20367;-84
2023/12/29 12:27:29;;;;;;;4.30;1.47;;;11.90;1.00;;;;;;6278455;22;20435;-85
2023/12/29 12:29:58;;;;;;;5.20;1.53;;;11.80;1.00;;;;;;6278068;22;20386;-83
2023/12/29 12:32:25;;;;;;;4.90;1.40;;;11.90;1.00;;;;;;6278072;22;20465;-85
2023/12/29 12:34:50;;;;;;;3.93;1.53;;;11.90;1.00;;;;;;6252010;22;20462;-84
2023/12/29 12:37:24;;;;;;;6.90;1.50;;;11.90;1.00;;;;;;6251823;22;20728;-85
2023/12/29 12:39:50;;;;;;;6.73;2.73;;;11.90;1.00;;;;;;6252357;22;20240;-84
2023/12/29 12:42:17;;;;;;;5.37;2.20;;;11.90;1.00;;;;;;6278991;22;20395;-84
2023/12/29 12:44:56;;;;;;;4.10;1.47;;;12.00;1.00;;;;;;6251657;22;20430;-85
2023/12/29 12:47:31;;;;;;;2.07;1.50;;;12.10;1.00;;;;;;6279644;22;20890;-84